Airfield :
LOGIN :

Register | Disclaimer

   EN    FR    IT 

 










Legend :    VFR   Marginal VFR   IFR   Intensive IFR   Very Intensive IFR
Visi :
Ceiling :
>= 8 km
>= 3000ft
5 to 8 km
1000 to 3000 ft
1500m to 5 km
500 to 1000 ft
800 to 1500m
200 to 500 ft
< 800m
< 200 ft
Symbols :   Thunderstorms  Fog  Heavy snow  Heavy precipitations  Wind > 20 kt
SIGMETs :     Misc.  Thunderstorms  Icing  Turbulence  Mountain Waves  Volcanic Ashes






- Airport Elevation : 33 ft
- IATA code : MHZ


EGUN - RAF Mildenhall

CURRENT METAR :
  • 071801Z AUTO 22014KT 9999 SCT049 09/08 A2981 RMK AO2 SLP098 $

EXPIRED METARs :
  • 071721Z AUTO 23010KT 9999 BKN048 BKN055 OVC070 09/08 A2983 RMK AO2 SLP105 $
  • 071656Z AUTO 22010KT 9999 BKN055 OVC075 09/08 A2982 RMK AO2 SLP101 T00920083 $
  • 071556Z AUTO 22010KT 9999 OVC075 09/08 A2984 RMK AO2 SLP108 T00920081 $

TAF TAF EGUN
Valid from the 07 at 12:00 until the 08 at 18:00 UTC


071200Z 0712/0818 25010G20KT 9999 SCT020 BKN040 QNH2976INS
BECMG 0721/0722 21025G35KT 9999 BKN020 510003 QNH2953INS
BECMG 0801/0802 21030G40KT 9999 -SHRA BKN015 510003 QNH2940INS
BECMG 0807/0808 24025G35KT 9999 NSW BKN020 510003 QNH2938INS TX11/0805Z TN08/0716Z



MET'MAP, your aeronautical weather chart ! - Copyright ORBIFLY December 2007 - Disclaimer

ORBIFLY MET'MAP TEAM :

Programming & Development : Alexandra Zaïnal
Concept & original design : Baudouin d'Aumeries
Assistance for programming : Marc-Olivier Méhu
Technical & hardware support : Manuel Goepfert

Contact : metmap@orbifly.com




SOURCES & CREDITS :

   NOAA